createdAt,value
2022-09-30T00:02:56.938Z,22.78
2022-09-30T00:07:55.684Z,22.73
2022-09-30T00:12:54.803Z,22.69
2022-09-30T00:17:53.471Z,22.64
2022-09-30T00:22:53.539Z,22.58
2022-09-30T00:27:52.315Z,22.48
2022-09-30T00:32:51.015Z,22.41
2022-09-30T00:37:49.742Z,22.32
2022-09-30T00:42:50.433Z,22.22
2022-09-30T00:47:53.854Z,22.18
2022-09-30T00:52:57.096Z,22.12
2022-09-30T00:57:58.383Z,22.05
2022-09-30T01:02:57.438Z,21.97
2022-09-30T01:07:59.121Z,21.93
2022-09-30T01:13:00.142Z,21.87
2022-09-30T01:18:07.917Z,21.83
2022-09-30T01:23:24.980Z,21.79
2022-09-30T01:28:56.595Z,21.73
2022-09-30T01:34:03.865Z,21.63
2022-09-30T01:39:16.772Z,21.60
2022-09-30T01:44:20.400Z,21.55
2022-09-30T01:49:31.138Z,21.49
2022-09-30T01:54:35.566Z,21.46
2022-09-30T01:59:38.613Z,21.43
2022-09-30T02:04:43.734Z,21.40
2022-09-30T02:09:49.377Z,21.39
2022-09-30T02:14:54.527Z,21.36
2022-09-30T02:20:00.611Z,21.32
2022-09-30T02:25:03.159Z,21.28
2022-09-30T02:30:04.194Z,21.28
2022-09-30T02:35:08.862Z,21.27
2022-09-30T02:40:13.161Z,21.24
2022-09-30T02:45:16.498Z,21.20
2022-09-30T02:50:21.690Z,21.17
2022-09-30T02:55:28.163Z,21.11
2022-09-30T03:00:27.992Z,21.04
2022-09-30T03:05:28.945Z,21.02
2022-09-30T03:10:30.548Z,20.93
2022-09-30T03:15:42.356Z,20.87
2022-09-30T03:20:53.823Z,20.84
2022-09-30T03:26:00.473Z,20.83
2022-09-30T03:31:07.135Z,20.84
2022-09-30T03:36:15.219Z,20.82
2022-09-30T03:41:20.540Z,20.74
2022-09-30T03:46:26.181Z,20.65
2022-09-30T03:51:26.575Z,20.67
2022-09-30T03:56:29.754Z,20.67
2022-09-30T04:01:29.418Z,20.64
2022-09-30T04:06:29.639Z,20.56
2022-09-30T04:11:28.434Z,20.43
2022-09-30T04:16:27.271Z,20.26
2022-09-30T04:21:28.824Z,20.26
2022-09-30T04:26:29.024Z,20.24
2022-09-30T04:31:27.824Z,20.31
2022-09-30T04:36:26.611Z,20.29
2022-09-30T04:41:25.966Z,20.30
2022-09-30T04:46:26.171Z,20.34
2022-09-30T04:51:24.882Z,20.37
2022-09-30T04:56:24.552Z,20.41
2022-09-30T05:01:23.417Z,20.40
2022-09-30T05:06:23.583Z,20.37
2022-09-30T05:11:23.158Z,20.35
2022-09-30T05:16:21.980Z,20.37
2022-09-30T05:21:21.285Z,20.37
2022-09-30T05:26:21.354Z,20.39
2022-09-30T05:31:21.017Z,20.44
2022-09-30T05:36:19.847Z,20.48
2022-09-30T05:41:20.511Z,20.55
2022-09-30T05:46:21.272Z,20.63
2022-09-30T05:51:20.208Z,20.71
2022-09-30T05:56:18.970Z,20.78
2022-09-30T06:01:18.197Z,20.85
2022-09-30T06:06:20.175Z,20.90
2022-09-30T06:11:20.969Z,21.01
2022-09-30T06:16:20.286Z,21.02
2022-09-30T06:21:22.946Z,21.00
2022-09-30T06:26:24.653Z,21.08
2022-09-30T06:31:23.898Z,21.16
2022-09-30T06:36:24.043Z,21.32
2022-09-30T06:41:27.688Z,21.42
2022-09-30T06:46:31.072Z,21.53
2022-09-30T06:51:33.270Z,21.64
2022-09-30T06:56:32.741Z,21.73
2022-09-30T07:01:31.478Z,21.88
2022-09-30T07:06:31.307Z,21.95
2022-09-30T07:11:31.412Z,22.09
2022-09-30T07:16:31.761Z,22.25
2022-09-30T07:21:32.059Z,22.40
2022-09-30T07:26:32.296Z,22.52
2022-09-30T07:31:34.008Z,22.71
2022-09-30T07:36:34.482Z,22.90
2022-09-30T07:41:36.632Z,23.06
2022-09-30T07:46:39.235Z,23.24
2022-09-30T07:51:41.028Z,23.44
2022-09-30T07:57:10.285Z,23.60
2022-09-30T08:02:03.113Z,23.78
2022-09-30T08:07:03.587Z,23.96
2022-09-30T08:12:07.411Z,24.15
2022-09-30T08:17:06.364Z,24.38
2022-09-30T08:22:06.622Z,24.59
2022-09-30T08:27:07.041Z,24.78
2022-09-30T08:32:06.000Z,24.92
2022-09-30T08:37:09.259Z,25.25
2022-09-30T08:42:36.602Z,25.61
2022-09-30T08:47:48.177Z,26.27
2022-09-30T08:52:50.209Z,27.23
2022-09-30T08:57:51.447Z,28.45
2022-09-30T09:02:55.936Z,29.56
2022-09-30T09:08:05.152Z,30.50
2022-09-30T09:13:13.575Z,31.25
2022-09-30T09:18:47.087Z,32.68
2022-09-30T09:23:46.420Z,33.35
2022-09-30T09:28:58.173Z,33.70
2022-09-30T09:34:01.946Z,34.27
2022-09-30T09:39:17.684Z,35.01
2022-09-30T09:44:26.989Z,36.00
2022-09-30T09:49:32.468Z,36.47
2022-09-30T09:54:34.182Z,36.76
2022-09-30T09:59:34.291Z,37.27
2022-09-30T10:04:33.330Z,37.85
2022-09-30T10:09:34.790Z,38.20
2022-09-30T10:14:36.700Z,38.55
2022-09-30T10:19:36.558Z,38.81
2022-09-30T10:24:36.735Z,38.39
2022-09-30T10:29:37.500Z,38.87
2022-09-30T10:34:39.844Z,39.74
2022-09-30T10:39:40.571Z,39.56
2022-09-30T10:44:47.067Z,39.38
2022-09-30T10:49:49.769Z,40.47
2022-09-30T10:54:51.254Z,41.04
2022-09-30T10:59:54.554Z,41.28
2022-09-30T11:05:03.869Z,41.38
2022-09-30T11:10:07.975Z,40.90
2022-09-30T11:15:17.539Z,40.89
2022-09-30T11:20:22.315Z,41.10
2022-09-30T11:25:28.959Z,41.71
2022-09-30T11:30:39.332Z,42.26
2022-09-30T11:35:47.393Z,42.10
2022-09-30T11:40:55.936Z,42.06
2022-09-30T11:46:18.066Z,42.74
2022-09-30T11:51:25.260Z,42.63
2022-09-30T11:56:37.702Z,42.98
2022-09-30T12:01:44.024Z,42.47
2022-09-30T12:06:50.230Z,42.33
2022-09-30T12:11:55.714Z,42.96
2022-09-30T12:16:57.907Z,43.56
2022-09-30T12:22:02.638Z,44.33
2022-09-30T12:27:02.323Z,44.09
2022-09-30T12:32:21.618Z,44.57
2022-09-30T12:37:35.779Z,44.23
2022-09-30T12:43:02.174Z,44.71
2022-09-30T12:48:08.006Z,44.69
2022-09-30T12:53:17.763Z,44.15
2022-09-30T12:58:26.186Z,44.45
2022-09-30T13:03:28.854Z,45.09
2022-09-30T13:08:50.593Z,44.66
2022-09-30T13:14:03.887Z,43.97
2022-09-30T13:19:04.180Z,43.69
2022-09-30T13:24:04.664Z,43.49
2022-09-30T13:29:38.263Z,43.52
2022-09-30T13:34:56.754Z,43.22
2022-09-30T13:39:58.015Z,42.92
2022-09-30T13:45:03.820Z,42.99
2022-09-30T13:50:14.319Z,42.74
2022-09-30T13:55:19.798Z,42.65
2022-09-30T14:00:21.540Z,42.73
2022-09-30T14:05:42.606Z,43.40
2022-09-30T14:10:58.817Z,43.30
2022-09-30T14:16:22.926Z,42.97
2022-09-30T14:21:35.263Z,42.45
2022-09-30T14:26:56.365Z,41.36
2022-09-30T14:32:12.977Z,40.70
2022-09-30T14:37:20.083Z,39.99
2022-09-30T14:42:25.438Z,39.19
2022-09-30T14:47:25.963Z,38.83
2022-09-30T14:52:38.398Z,38.40
2022-09-30T14:57:37.198Z,37.91
2022-09-30T15:02:36.263Z,37.70
2022-09-30T15:07:36.535Z,37.56
2022-09-30T15:12:37.581Z,37.61
2022-09-30T15:17:38.896Z,37.87
2022-09-30T15:22:47.777Z,37.86
2022-09-30T15:27:46.998Z,37.74
2022-09-30T15:32:50.277Z,37.60
2022-09-30T15:37:53.083Z,37.30
2022-09-30T15:42:59.691Z,37.02
2022-09-30T15:48:02.451Z,36.52
2022-09-30T15:53:08.936Z,36.06
2022-09-30T15:58:36.548Z,35.54
2022-09-30T16:03:38.746Z,35.09
2022-09-30T16:08:45.488Z,34.58
2022-09-30T16:13:45.933Z,34.10
2022-09-30T16:18:54.982Z,33.66
2022-09-30T16:23:55.633Z,33.24
2022-09-30T16:28:56.020Z,32.84
2022-09-30T16:33:54.689Z,32.39
2022-09-30T16:38:54.865Z,32.08
2022-09-30T16:43:53.703Z,31.75
2022-09-30T16:48:52.781Z,31.49
2022-09-30T16:53:51.934Z,31.20
2022-09-30T16:58:52.568Z,30.95
2022-09-30T17:03:54.346Z,30.70
2022-09-30T17:08:53.655Z,30.46
2022-09-30T17:13:54.012Z,30.28
2022-09-30T17:18:53.551Z,30.04
2022-09-30T17:23:52.681Z,29.74
2022-09-30T17:28:51.557Z,29.59
2022-09-30T17:33:52.004Z,29.44
2022-09-30T17:38:56.549Z,29.26
2022-09-30T17:43:55.521Z,29.11
2022-09-30T17:48:58.062Z,28.99
2022-09-30T17:53:57.102Z,28.89
2022-09-30T17:58:58.494Z,28.78
2022-09-30T18:04:01.334Z,28.65
2022-09-30T18:09:00.771Z,28.57
2022-09-30T18:14:02.036Z,28.39
2022-09-30T18:19:02.936Z,28.18
2022-09-30T18:24:02.138Z,28.12
2022-09-30T18:29:01.204Z,28.06
2022-09-30T18:34:03.050Z,27.97
2022-09-30T18:39:02.823Z,27.88
2022-09-30T18:44:02.585Z,27.79
2022-09-30T18:49:03.402Z,27.70
2022-09-30T18:54:02.663Z,27.58
2022-09-30T18:59:04.211Z,27.47
2022-09-30T19:04:07.290Z,27.37
2022-09-30T19:09:08.092Z,27.26
2022-09-30T19:14:07.145Z,27.16
2022-09-30T19:19:08.302Z,27.09
2022-09-30T19:24:11.447Z,26.99
2022-09-30T19:29:11.534Z,26.94
2022-09-30T19:34:15.582Z,26.86
2022-09-30T19:39:18.854Z,26.75
2022-09-30T19:44:19.265Z,26.70
2022-09-30T19:49:21.755Z,26.61
2022-09-30T19:54:33.845Z,26.55
2022-09-30T19:59:37.103Z,26.45
2022-09-30T20:04:41.531Z,26.36
2022-09-30T20:09:42.859Z,26.25
2022-09-30T20:14:59.088Z,26.14
2022-09-30T20:20:27.564Z,26.03
2022-09-30T20:25:38.497Z,25.95
2022-09-30T20:30:51.495Z,25.83
2022-09-30T20:35:55.734Z,25.68
2022-09-30T20:40:57.241Z,25.55
2022-09-30T20:46:00.356Z,25.39
2022-09-30T20:51:01.076Z,25.31
2022-09-30T20:56:02.050Z,25.19
2022-09-30T21:01:03.700Z,25.06
2022-09-30T21:06:03.902Z,24.91
2022-09-30T21:11:04.062Z,24.88
2022-09-30T21:16:05.288Z,24.76
2022-09-30T21:21:06.124Z,24.64
2022-09-30T21:26:07.240Z,24.54
2022-09-30T21:31:08.072Z,24.41
2022-09-30T21:36:08.495Z,24.34
2022-09-30T21:41:08.666Z,24.26
2022-09-30T21:46:09.313Z,24.16
2022-09-30T21:51:10.337Z,24.12
2022-09-30T21:56:11.726Z,24.08
2022-09-30T22:01:11.800Z,23.99
2022-09-30T22:06:13.132Z,23.93
2022-09-30T22:11:17.703Z,23.85
2022-09-30T22:16:17.018Z,23.79
2022-09-30T22:21:19.316Z,23.74
2022-09-30T22:26:21.477Z,23.68
2022-09-30T22:31:22.270Z,23.57
2022-09-30T22:36:39.652Z,23.49
2022-09-30T22:41:39.406Z,23.38
2022-09-30T22:46:39.484Z,23.31
2022-09-30T22:51:39.715Z,23.22
2022-09-30T22:56:38.569Z,23.09
2022-09-30T23:01:37.575Z,22.99
2022-09-30T23:06:36.776Z,22.93
2022-09-30T23:11:37.018Z,22.94
2022-09-30T23:16:35.982Z,22.93
2022-09-30T23:21:35.498Z,22.93
2022-09-30T23:26:34.591Z,22.92
2022-09-30T23:31:35.816Z,22.93
2022-09-30T23:36:36.985Z,22.91
2022-09-30T23:41:36.496Z,22.89
2022-09-30T23:46:37.117Z,22.85
2022-09-30T23:51:36.199Z,22.83
2022-09-30T23:56:35.333Z,22.82
